Time;durP1;ratioP1;P1;durP2;ratioP2;P2;SDS_P1;SDS_P2;PMS_P1;PMS_P2;Temp;Humidity;BMP_temperature;BMP_pressure;BME280_temperature;BME280_humidity;BME280_pressure;Samples;Min_cycle;Max_cycle;Signal;HPM_P1;HPM_P2
2024/02/09 00:00:22;;;;;;;44.65;23.58;;;;;;;;;;5050550;28;20021;-73
2024/02/09 00:02:49;;;;;;;37.97;22.02;;;;;;;;;;5052031;28;20017;-74
2024/02/09 00:05:16;;;;;;;37.20;21.17;;;;;;;;;;5050470;28;20365;-73
2024/02/09 00:07:45;;;;;;;42.25;23.55;;;;;;;;;;5050694;28;20021;-74
2024/02/09 00:10:12;;;;;;;37.38;20.42;;;;;;;;;;5050594;28;20067;-74
2024/02/09 00:12:39;;;;;;;42.95;23.85;;;;;;;;;;5054095;28;20036;-72
2024/02/09 00:15:06;;;;;;;49.33;25.02;;;;;;;;;;5055429;28;20084;-73
2024/02/09 00:17:33;;;;;;;35.78;20.15;;;;;;;;;;5056153;28;20017;-73
2024/02/09 00:19:59;;;;;;;38.10;21.98;;;;;;;;;;5055722;28;20025;-73
2024/02/09 00:22:25;;;;;;;43.17;25.23;;;;;;;;;;5055744;28;20389;-74
2024/02/09 00:24:51;;;;;;;31.83;18.20;;;;;;;;;;5054496;28;20065;-74
2024/02/09 00:27:18;;;;;;;37.63;21.13;;;;;;;;;;5055635;28;20025;-74
2024/02/09 00:29:44;;;;;;;36.10;19.50;;;;;;;;;;5054459;28;20074;-74
2024/02/09 00:32:14;;;;;;;38.97;20.88;;;;;;;;;;5055547;28;20033;-73
2024/02/09 00:34:40;;;;;;;38.53;21.92;;;;;;;;;;5054100;28;20025;-74
2024/02/09 00:37:06;;;;;;;37.20;20.08;;;;;;;;;;5055192;28;20032;-75
2024/02/09 00:39:35;;;;;;;38.75;21.77;;;;;;;;;;5055906;28;20350;-75
2024/02/09 00:42:02;;;;;;;46.15;22.23;;;;;;;;;;5054309;28;20074;-75
2024/02/09 00:44:28;;;;;;;23.83;13.55;;;;;;;;;;5054996;28;20465;-74
2024/02/09 00:46:54;;;;;;;40.60;21.20;;;;;;;;;;5054110;28;20025;-74
2024/02/09 00:49:22;;;;;;;41.03;21.58;;;;;;;;;;5053861;28;20025;-73
2024/02/09 00:51:52;;;;;;;41.40;19.45;;;;;;;;;;5054009;28;20033;-74
2024/02/09 00:54:18;;;;;;;28.10;15.13;;;;;;;;;;5053848;28;20021;-75
2024/02/09 00:56:45;;;;;;;25.52;14.35;;;;;;;;;;5054024;28;20033;-74
2024/02/09 00:59:11;;;;;;;32.97;17.05;;;;;;;;;;5055006;28;20031;-74
2024/02/09 01:01:37;;;;;;;30.00;16.50;;;;;;;;;;5055134;28;20025;-74
2024/02/09 01:04:06;;;;;;;26.77;14.35;;;;;;;;;;5053782;28;20033;-74
2024/02/09 01:06:34;;;;;;;32.85;15.95;;;;;;;;;;5055058;28;20112;-74
2024/02/09 01:09:00;;;;;;;25.67;13.40;;;;;;;;;;5055173;28;20029;-74
2024/02/09 01:11:27;;;;;;;35.30;19.73;;;;;;;;;;5054787;28;20021;-74
2024/02/09 02:46:47;;;;;;;13.10;5.90;;;;;;;;;;5053460;28;20516;-75
2024/02/09 03:05:41;;;;;;;24.17;8.75;;;;;;;;;;5052596;28;20044;-75
2024/02/09 03:08:08;;;;;;;21.33;8.20;;;;;;;;;;5051621;28;20025;-75
2024/02/09 03:10:35;;;;;;;13.30;5.32;;;;;;;;;;5051257;28;20060;-76
2024/02/09 03:13:01;;;;;;;19.02;5.90;;;;;;;;;;5051181;28;20027;-76
2024/02/09 03:15:27;;;;;;;19.15;7.63;;;;;;;;;;5052439;28;20044;-75
2024/02/09 03:17:53;;;;;;;18.05;7.20;;;;;;;;;;5051488;28;20079;-75
2024/02/09 03:20:20;;;;;;;13.48;4.25;;;;;;;;;;5051624;28;20052;-74
2024/02/09 03:22:47;;;;;;;16.25;6.07;;;;;;;;;;5052981;28;20025;-75
2024/02/09 03:25:13;;;;;;;17.33;5.80;;;;;;;;;;5054106;28;20032;-74
2024/02/09 03:27:42;;;;;;;14.30;5.82;;;;;;;;;;5053245;28;20475;-75
2024/02/09 03:30:09;;;;;;;10.77;4.53;;;;;;;;;;5053040;28;20017;-75
2024/02/09 03:32:44;;;;;;;19.33;6.00;;;;;;;;;;5050572;28;20294;-75
2024/02/09 03:35:10;;;;;;;18.52;7.18;;;;;;;;;;5052143;28;20090;-75
2024/02/09 03:37:36;;;;;;;11.05;5.13;;;;;;;;;;5050817;28;20021;-74
2024/02/09 03:40:06;;;;;;;14.45;6.75;;;;;;;;;;5052540;28;20025;-75
2024/02/09 03:42:32;;;;;;;19.08;7.60;;;;;;;;;;5051863;28;20464;-75
2024/02/09 03:44:59;;;;;;;19.75;7.60;;;;;;;;;;5051705;28;20063;-74
2024/02/09 03:47:26;;;;;;;13.18;6.38;;;;;;;;;;5052243;28;20036;-74
2024/02/09 03:49:52;;;;;;;15.50;6.88;;;;;;;;;;5050906;28;20068;-74
2024/02/09 03:52:20;;;;;;;20.67;8.38;;;;;;;;;;5050674;28;20017;-75
2024/02/09 03:54:46;;;;;;;17.65;7.07;;;;;;;;;;5050808;28;20028;-74
2024/02/09 03:57:12;;;;;;;14.63;4.88;;;;;;;;;;5052561;28;20131;-75
2024/02/09 03:59:42;;;;;;;16.33;5.97;;;;;;;;;;5051685;28;20029;-75
2024/02/09 04:02:08;;;;;;;10.82;4.47;;;;;;;;;;5050927;28;20033;-75
2024/02/09 04:04:34;;;;;;;15.05;4.72;;;;;;;;;;5051849;28;20025;-75
2024/02/09 04:07:00;;;;;;;9.00;3.70;;;;;;;;;;5050802;28;20094;-74
2024/02/09 04:09:26;;;;;;;18.10;5.75;;;;;;;;;;5051818;28;20021;-75
2024/02/09 04:11:55;;;;;;;12.10;4.05;;;;;;;;;;5050691;28;20469;-74
2024/02/09 04:14:21;;;;;;;11.57;5.70;;;;;;;;;;5050328;28;20051;-74
2024/02/09 04:16:49;;;;;;;11.48;4.45;;;;;;;;;;5050692;28;20112;-74
2024/02/09 04:19:15;;;;;;;12.57;4.80;;;;;;;;;;5050624;28;20025;-73
2024/02/09 04:21:47;;;;;;;12.13;5.18;;;;;;;;;;5050312;28;20029;-74
2024/02/09 04:24:13;;;;;;;16.40;5.20;;;;;;;;;;5051826;28;20017;-74
2024/02/09 04:26:40;;;;;;;14.40;5.03;;;;;;;;;;5050201;28;20192;-73
2024/02/09 04:29:07;;;;;;;11.48;5.43;;;;;;;;;;5050602;28;20068;-73
2024/02/09 04:31:33;;;;;;;18.42;6.05;;;;;;;;;;5050309;28;20439;-75
2024/02/09 04:33:59;;;;;;;11.65;4.30;;;;;;;;;;5050498;28;20037;-75
2024/02/09 04:36:29;;;;;;;10.15;4.25;;;;;;;;;;5051774;28;20024;-76
2024/02/09 04:38:55;;;;;;;15.77;5.20;;;;;;;;;;5051809;28;20459;-74
2024/02/09 04:41:21;;;;;;;8.88;4.35;;;;;;;;;;5051832;28;20271;-74
2024/02/09 04:43:50;;;;;;;10.52;3.65;;;;;;;;;;5050334;28;20023;-75
2024/02/09 04:46:23;;;;;;;9.57;4.65;;;;;;;;;;5051716;28;20025;-75
2024/02/09 04:48:50;;;;;;;11.45;4.93;;;;;;;;;;5050500;28;20354;-74
2024/02/09 04:51:16;;;;;;;13.13;5.28;;;;;;;;;;5051913;28;20028;-75
2024/02/09 04:53:42;;;;;;;10.57;4.07;;;;;;;;;;5051433;28;20038;-74
2024/02/09 04:56:09;;;;;;;9.80;4.50;;;;;;;;;;5051581;28;20100;-75
2024/02/09 04:58:36;;;;;;;7.32;3.17;;;;;;;;;;5054283;28;20527;-74
2024/02/09 05:01:02;;;;;;;7.70;3.38;;;;;;;;;;5053906;28;20044;-76
2024/02/09 05:03:30;;;;;;;9.65;3.83;;;;;;;;;;5053580;28;20021;-75
2024/02/09 05:05:56;;;;;;;11.50;5.20;;;;;;;;;;5053578;28;20033;-75
2024/02/09 05:08:23;;;;;;;11.63;4.35;;;;;;;;;;5054599;28;20028;-75
2024/02/09 05:10:49;;;;;;;6.07;3.38;;;;;;;;;;5053531;28;20028;-75
2024/02/09 05:13:15;;;;;;;8.35;3.55;;;;;;;;;;5053271;28;20436;-76
2024/02/09 05:15:41;;;;;;;11.95;4.22;;;;;;;;;;5053417;28;20029;-75
2024/02/09 05:18:07;;;;;;;11.55;4.95;;;;;;;;;;5053908;28;20080;-75
2024/02/09 05:20:33;;;;;;;10.02;4.38;;;;;;;;;;5055663;28;20033;-74
2024/02/09 05:23:00;;;;;;;10.98;4.13;;;;;;;;;;5054412;28;20488;-74
2024/02/09 05:25:26;;;;;;;9.02;4.55;;;;;;;;;;5054193;28;20033;-75
2024/02/09 05:27:53;;;;;;;10.18;4.57;;;;;;;;;;5054339;28;20484;-75
2024/02/09 05:30:19;;;;;;;10.00;4.20;;;;;;;;;;5053408;28;20060;-75
2024/02/09 05:32:46;;;;;;;9.23;3.50;;;;;;;;;;5054369;28;20025;-75
2024/02/09 05:35:12;;;;;;;9.07;3.20;;;;;;;;;;5054570;28;20025;-74
2024/02/09 05:37:38;;;;;;;7.72;3.28;;;;;;;;;;5053015;28;20025;-75
2024/02/09 05:40:04;;;;;;;8.52;2.97;;;;;;;;;;5053247;28;20031;-75
2024/02/09 05:42:30;;;;;;;8.57;3.47;;;;;;;;;;5052934;28;20028;-75
2024/02/09 05:44:56;;;;;;;12.75;4.93;;;;;;;;;;5053003;28;20052;-74
2024/02/09 05:47:22;;;;;;;12.60;4.40;;;;;;;;;;5054400;28;20036;-75
2024/02/09 05:49:51;;;;;;;6.00;3.17;;;;;;;;;;5054075;28;20113;-74
2024/02/09 05:52:17;;;;;;;7.53;2.80;;;;;;;;;;5052668;28;20029;-75
2024/02/09 05:54:43;;;;;;;10.25;4.30;;;;;;;;;;5052702;28;20025;-75
2024/02/09 05:57:09;;;;;;;8.75;4.55;;;;;;;;;;5054163;28;20018;-75
2024/02/09 05:59:35;;;;;;;9.75;4.53;;;;;;;;;;5053616;28;20021;-76
2024/02/09 06:02:01;;;;;;;8.38;2.65;;;;;;;;;;5052778;28;20028;-75
2024/02/09 06:04:28;;;;;;;8.45;3.30;;;;;;;;;;5052525;28;20099;-75
2024/02/09 06:06:54;;;;;;;7.57;3.22;;;;;;;;;;5053761;28;20104;-75
2024/02/09 06:09:20;;;;;;;11.27;2.95;;;;;;;;;;5052771;28;20029;-75
2024/02/09 06:11:46;;;;;;;6.75;2.50;;;;;;;;;;5052442;28;20365;-75
2024/02/09 06:14:13;;;;;;;9.80;4.28;;;;;;;;;;5052256;28;20063;-73
2024/02/09 06:16:39;;;;;;;8.55;3.55;;;;;;;;;;5052305;28;20025;-74
2024/02/09 06:19:07;;;;;;;10.40;3.28;;;;;;;;;;5052684;28;20057;-74
2024/02/09 06:21:33;;;;;;;9.57;3.85;;;;;;;;;;5052256;28;20025;-75
2024/02/09 06:23:59;;;;;;;9.63;3.13;;;;;;;;;;5052241;28;20483;-74
2024/02/09 06:26:25;;;;;;;6.85;2.70;;;;;;;;;;5052341;28;20029;-75
2024/02/09 06:28:52;;;;;;;7.65;3.38;;;;;;;;;;5051669;28;20460;-73
2024/02/09 06:31:24;;;;;;;6.82;3.05;;;;;;;;;;5052225;28;20045;-74
2024/02/09 06:33:50;;;;;;;8.40;3.00;;;;;;;;;;5051930;28;20025;-74
2024/02/09 06:36:17;;;;;;;11.80;3.65;;;;;;;;;;5051871;28;20053;-74
2024/02/09 06:38:43;;;;;;;8.05;3.67;;;;;;;;;;5053126;28;20021;-76
2024/02/09 06:41:09;;;;;;;11.50;3.25;;;;;;;;;;5052113;28;20115;-75
2024/02/09 06:43:35;;;;;;;6.95;2.92;;;;;;;;;;5051674;28;20036;-75
2024/02/09 06:46:01;;;;;;;6.80;3.20;;;;;;;;;;5051895;28;20064;-75
2024/02/09 06:48:28;;;;;;;12.55;3.85;;;;;;;;;;5051588;28;20025;-74
2024/02/09 06:50:54;;;;;;;9.15;2.60;;;;;;;;;;5051503;28;20024;-75
2024/02/09 06:53:22;;;;;;;13.23;3.75;;;;;;;;;;5053231;28;20025;-74
2024/02/09 06:55:53;;;;;;;4.70;2.30;;;;;;;;;;5053141;28;20126;-75
2024/02/09 06:58:24;;;;;;;12.00;3.35;;;;;;;;;;5053031;28;20381;-75
2024/02/09 07:00:54;;;;;;;6.68;3.03;;;;;;;;;;5051513;28;20029;-75
2024/02/09 07:03:21;;;;;;;4.68;2.28;;;;;;;;;;5053396;28;20021;-76
2024/02/09 07:05:51;;;;;;;7.70;2.60;;;;;;;;;;5057714;28;20032;-75
2024/02/09 07:08:18;;;;;;;6.32;2.88;;;;;;;;;;5064390;28;20032;-75
2024/02/09 07:10:45;;;;;;;9.70;2.85;;;;;;;;;;5055991;28;20459;-75
2024/02/09 07:13:11;;;;;;;9.75;2.60;;;;;;;;;;5072451;28;20028;-74
2024/02/09 07:15:37;;;;;;;9.52;2.88;;;;;;;;;;5071099;28;20031;-74
2024/02/09 07:18:03;;;;;;;6.47;2.35;;;;;;;;;;5071247;28;20056;-75
2024/02/09 07:20:29;;;;;;;9.15;2.70;;;;;;;;;;5071194;28;20028;-75
2024/02/09 07:22:55;;;;;;;7.55;2.22;;;;;;;;;;5071962;28;20024;-75
2024/02/09 07:25:21;;;;;;;11.57;2.97;;;;;;;;;;5072053;28;20036;-74
2024/02/09 07:27:47;;;;;;;8.35;3.60;;;;;;;;;;5071978;28;20464;-75
2024/02/09 07:30:15;;;;;;;12.27;3.63;;;;;;;;;;5072141;28;20062;-75
2024/02/09 07:32:41;;;;;;;8.38;2.42;;;;;;;;;;5070844;28;20029;-75
2024/02/09 07:35:07;;;;;;;7.40;3.42;;;;;;;;;;5071075;28;20032;-76
2024/02/09 07:37:33;;;;;;;8.00;3.13;;;;;;;;;;5070687;28;20023;-76
2024/02/09 07:40:02;;;;;;;7.30;2.92;;;;;;;;;;5070999;28;20487;-76
2024/02/09 07:42:28;;;;;;;11.80;3.47;;;;;;;;;;5070736;28;20481;-77
2024/02/09 07:44:54;;;;;;;11.15;2.63;;;;;;;;;;5070176;28;20071;-76
2024/02/09 07:47:21;;;;;;;8.13;2.85;;;;;;;;;;5071015;28;20152;-76
2024/02/09 07:49:47;;;;;;;10.30;2.92;;;;;;;;;;5070791;28;20056;-76
2024/02/09 07:52:13;;;;;;;5.68;2.10;;;;;;;;;;5070997;28;20025;-76
2024/02/09 07:54:39;;;;;;;6.75;2.88;;;;;;;;;;5070684;28;20035;-76
2024/02/09 07:57:06;;;;;;;11.10;3.80;;;;;;;;;;5070845;28;20031;-76
2024/02/09 07:59:32;;;;;;;8.70;2.80;;;;;;;;;;5070737;28;20031;-76
2024/02/09 08:01:58;;;;;;;7.60;2.17;;;;;;;;;;5070813;28;20024;-77
2024/02/09 08:04:31;;;;;;;16.25;4.22;;;;;;;;;;5071706;28;20036;-76
2024/02/09 08:06:57;;;;;;;6.63;2.67;;;;;;;;;;5070355;28;20578;-76
2024/02/09 08:09:23;;;;;;;8.77;3.92;;;;;;;;;;5070778;28;20024;-76
2024/02/09 08:11:49;;;;;;;11.90;3.65;;;;;;;;;;5071861;28;20017;-76
2024/02/09 08:14:16;;;;;;;6.43;2.83;;;;;;;;;;5070316;28;20055;-76
2024/02/09 08:16:42;;;;;;;7.40;2.47;;;;;;;;;;5070536;28;20115;-77
2024/02/09 08:19:09;;;;;;;6.57;2.50;;;;;;;;;;5071978;28;20020;-77
2024/02/09 08:21:38;;;;;;;9.82;3.72;;;;;;;;;;5070333;28;20358;-76
2024/02/09 08:24:05;;;;;;;8.15;3.63;;;;;;;;;;5070621;28;20024;-76
2024/02/09 08:26:31;;;;;;;13.00;3.53;;;;;;;;;;5070342;28;20032;-76
2024/02/09 08:28:57;;;;;;;7.80;3.10;;;;;;;;;;5070579;28;20386;-76
2024/02/09 08:31:23;;;;;;;11.10;3.60;;;;;;;;;;5072158;28;20488;-76
2024/02/09 08:33:49;;;;;;;10.73;3.55;;;;;;;;;;5075048;28;20028;-77
2024/02/09 08:36:23;;;;;;;11.43;3.05;;;;;;;;;;5074524;28;20026;-76
2024/02/09 08:38:50;;;;;;;6.50;3.13;;;;;;;;;;5075309;28;20074;-76
2024/02/09 08:41:18;;;;;;;10.73;3.33;;;;;;;;;;5074055;28;20121;-77
2024/02/09 08:43:44;;;;;;;9.02;3.40;;;;;;;;;;5073654;28;20029;-76
2024/02/09 08:46:10;;;;;;;13.77;3.85;;;;;;;;;;5075255;28;20024;-76
2024/02/09 08:48:36;;;;;;;11.10;4.03;;;;;;;;;;5073653;28;20372;-76
2024/02/09 08:51:02;;;;;;;10.90;4.10;;;;;;;;;;5073844;28;20032;-76
2024/02/09 08:53:28;;;;;;;11.98;3.70;;;;;;;;;;5073863;28;20524;-77
2024/02/09 08:55:54;;;;;;;13.30;3.50;;;;;;;;;;5075042;28;20046;-76
2024/02/09 08:58:20;;;;;;;8.88;4.10;;;;;;;;;;5074112;28;20020;-76
2024/02/09 09:00:47;;;;;;;10.90;3.65;;;;;;;;;;5073844;28;20078;-75
2024/02/09 09:03:14;;;;;;;10.15;4.05;;;;;;;;;;5073788;28;20027;-76
2024/02/09 09:05:40;;;;;;;11.63;3.83;;;;;;;;;;5075189;28;20024;-77
2024/02/09 09:08:07;;;;;;;7.88;3.33;;;;;;;;;;5074196;28;20058;-76
2024/02/09 09:10:34;;;;;;;9.35;4.13;;;;;;;;;;5075597;28;20056;-76
2024/02/09 09:13:00;;;;;;;9.35;3.17;;;;;;;;;;5073957;28;20024;-76
2024/02/09 09:15:26;;;;;;;13.02;4.10;;;;;;;;;;5074125;28;20048;-74
2024/02/09 09:17:52;;;;;;;14.90;4.72;;;;;;;;;;5074021;28;20025;-75
2024/02/09 09:20:19;;;;;;;13.50;4.20;;;;;;;;;;5074289;28;20021;-75
2024/02/09 09:22:45;;;;;;;8.13;2.75;;;;;;;;;;5074156;28;20514;-75
2024/02/09 09:25:11;;;;;;;9.85;3.20;;;;;;;;;;5074761;28;20074;-75
2024/02/09 09:27:37;;;;;;;11.15;2.67;;;;;;;;;;5073912;28;20031;-75
2024/02/09 09:30:07;;;;;;;12.88;3.90;;;;;;;;;;5075777;28;20039;-75
2024/02/09 09:32:33;;;;;;;8.63;3.23;;;;;;;;;;5074090;28;20020;-74
2024/02/09 09:35:00;;;;;;;11.30;3.72;;;;;;;;;;5073806;28;20086;-75
2024/02/09 09:37:28;;;;;;;10.93;3.47;;;;;;;;;;5073901;28;20078;-75
2024/02/09 09:39:54;;;;;;;10.40;3.53;;;;;;;;;;5074741;28;20115;-75
2024/02/09 09:42:23;;;;;;;9.25;4.18;;;;;;;;;;5073786;28;20480;-76
2024/02/09 09:44:52;;;;;;;8.90;3.15;;;;;;;;;;5073228;28;20163;-77
2024/02/09 09:47:19;;;;;;;9.57;3.78;;;;;;;;;;5073666;28;20029;-76
2024/02/09 09:49:46;;;;;;;6.10;3.33;;;;;;;;;;5073305;28;20124;-76
2024/02/09 09:52:15;;;;;;;11.75;3.80;;;;;;;;;;5073462;28;20028;-74
2024/02/09 09:54:41;;;;;;;9.98;3.92;;;;;;;;;;5073091;28;20450;-76
2024/02/09 09:57:08;;;;;;;10.73;3.65;;;;;;;;;;5073158;28;20028;-76
2024/02/09 09:59:34;;;;;;;9.18;4.07;;;;;;;;;;5074415;28;20032;-76
2024/02/09 10:02:02;;;;;;;9.52;4.13;;;;;;;;;;5072709;28;20112;-76
2024/02/09 10:04:28;;;;;;;11.07;3.47;;;;;;;;;;5072774;28;20024;-76
2024/02/09 10:06:54;;;;;;;8.88;3.10;;;;;;;;;;5073031;28;20099;-77
2024/02/09 10:09:20;;;;;;;8.23;3.10;;;;;;;;;;5073202;28;20020;-76
2024/02/09 10:11:48;;;;;;;10.73;3.30;;;;;;;;;;5073818;28;20074;-76
2024/02/09 10:14:16;;;;;;;9.60;3.97;;;;;;;;;;5073896;28;20052;-75
2024/02/09 10:16:48;;;;;;;7.88;2.80;;;;;;;;;;5072755;28;20379;-76
2024/02/09 10:19:16;;;;;;;7.03;2.53;;;;;;;;;;5072689;28;20426;-76
2024/02/09 10:21:42;;;;;;;9.27;2.67;;;;;;;;;;5072402;28;20031;-76
2024/02/09 10:24:10;;;;;;;9.57;3.13;;;;;;;;;;5072170;28;20033;-77
2024/02/09 10:26:36;;;;;;;10.13;3.17;;;;;;;;;;5073567;28;20464;-76
2024/02/09 10:29:03;;;;;;;10.30;3.10;;;;;;;;;;5072128;28;20025;-76
2024/02/09 10:31:31;;;;;;;9.77;3.30;;;;;;;;;;5072329;28;20021;-76
2024/02/09 10:33:57;;;;;;;15.95;4.38;;;;;;;;;;5072115;28;20032;-76
2024/02/09 10:36:24;;;;;;;9.25;3.50;;;;;;;;;;5072754;28;20054;-76
2024/02/09 10:38:50;;;;;;;11.95;3.83;;;;;;;;;;5072305;28;20111;-76
2024/02/09 10:41:25;;;;;;;7.88;2.65;;;;;;;;;;5072245;28;20063;-75
2024/02/09 10:43:54;;;;;;;9.90;3.67;;;;;;;;;;5073204;28;20033;-75
2024/02/09 10:46:23;;;;;;;10.85;3.13;;;;;;;;;;5055587;28;20032;-75
2024/02/09 10:48:50;;;;;;;6.10;3.13;;;;;;;;;;5071975;28;20091;-76
2024/02/09 10:51:17;;;;;;;7.28;2.95;;;;;;;;;;5072232;28;20032;-77
2024/02/09 10:53:56;;;;;;;7.80;3.50;;;;;;;;;;5071417;28;20028;-76
2024/02/09 10:56:26;;;;;;;10.73;3.90;;;;;;;;;;5072571;28;20035;-76
2024/02/09 10:58:53;;;;;;;15.20;4.03;;;;;;;;;;5071878;28;20267;-76
2024/02/09 11:01:19;;;;;;;12.13;3.38;;;;;;;;;;5073717;28;20047;-76
2024/02/09 11:03:45;;;;;;;14.95;4.78;;;;;;;;;;5072120;28;20032;-76
2024/02/09 11:06:11;;;;;;;8.90;3.13;;;;;;;;;;5072142;28;20032;-76
2024/02/09 11:08:38;;;;;;;11.05;3.83;;;;;;;;;;5073245;28;20020;-76
2024/02/09 11:11:04;;;;;;;10.52;3.85;;;;;;;;;;5073057;28;20025;-77
2024/02/09 11:13:31;;;;;;;8.25;3.05;;;;;;;;;;5071923;28;20048;-76
2024/02/09 11:15:58;;;;;;;9.88;3.75;;;;;;;;;;5071823;28;20020;-77
2024/02/09 11:18:31;;;;;;;12.35;4.13;;;;;;;;;;5071802;28;20048;-74
2024/02/09 11:21:15;;;;;;;11.50;3.88;;;;;;;;;;5072282;28;20020;-73
2024/02/09 11:23:41;;;;;;;8.48;3.50;;;;;;;;;;5071190;28;20442;-74
2024/02/09 11:26:11;;;;;;;8.38;3.17;;;;;;;;;;5071447;28;20032;-74
2024/02/09 11:28:37;;;;;;;12.85;3.92;;;;;;;;;;5073120;28;20024;-73
2024/02/09 11:31:05;;;;;;;8.55;3.63;;;;;;;;;;5071957;28;20032;-74
2024/02/09 11:33:31;;;;;;;11.85;3.38;;;;;;;;;;5075054;28;20031;-72
2024/02/09 11:35:58;;;;;;;10.43;4.10;;;;;;;;;;5070957;28;20048;-74
2024/02/09 11:38:25;;;;;;;9.10;4.05;;;;;;;;;;5071275;28;20031;-76
2024/02/09 11:40:52;;;;;;;7.50;4.00;;;;;;;;;;5070933;28;20021;-75
2024/02/09 11:43:18;;;;;;;11.70;3.92;;;;;;;;;;5072821;28;20554;-74
2024/02/09 11:45:45;;;;;;;8.40;3.50;;;;;;;;;;5071053;28;20471;-75
2024/02/09 11:48:12;;;;;;;14.60;4.45;;;;;;;;;;5071456;28;20016;-75
2024/02/09 11:50:40;;;;;;;9.55;3.47;;;;;;;;;;5071284;28;20028;-75
2024/02/09 11:53:09;;;;;;;11.65;4.13;;;;;;;;;;5070881;28;20032;-75
2024/02/09 11:55:39;;;;;;;9.82;4.38;;;;;;;;;;5070720;28;20099;-75
2024/02/09 11:58:06;;;;;;;9.93;3.50;;;;;;;;;;5070508;28;20158;-76
2024/02/09 12:00:32;;;;;;;5.95;2.65;;;;;;;;;;5070740;28;20058;-76
2024/02/09 12:02:59;;;;;;;11.63;3.38;;;;;;;;;;5070440;28;20047;-76
2024/02/09 12:05:25;;;;;;;7.03;2.72;;;;;;;;;;5070472;28;20033;-76
2024/02/09 12:07:51;;;;;;;10.98;3.00;;;;;;;;;;5074193;28;20121;-75
2024/02/09 12:10:18;;;;;;;12.30;3.78;;;;;;;;;;5076011;28;20020;-75
2024/02/09 12:12:48;;;;;;;7.72;2.60;;;;;;;;;;5074974;28;20024;-76
2024/02/09 12:15:15;;;;;;;10.38;3.30;;;;;;;;;;5074665;28;20052;-75
2024/02/09 12:17:43;;;;;;;11.43;3.88;;;;;;;;;;5074716;28;20027;-74
2024/02/09 12:20:09;;;;;;;11.23;3.00;;;;;;;;;;5074518;28;20405;-76
2024/02/09 12:22:37;;;;;;;7.60;2.65;;;;;;;;;;5074615;28;20020;-76
2024/02/09 12:25:08;;;;;;;12.45;3.25;;;;;;;;;;5075587;28;20468;-74
2024/02/09 12:27:34;;;;;;;11.85;3.75;;;;;;;;;;5074583;28;20483;-74
2024/02/09 12:30:03;;;;;;;7.53;3.15;;;;;;;;;;5074521;28;20436;-73
2024/02/09 12:32:32;;;;;;;11.30;3.07;;;;;;;;;;5075744;28;20048;-76
2024/02/09 12:34:58;;;;;;;7.68;3.15;;;;;;;;;;5075670;28;20029;-76
2024/02/09 12:37:25;;;;;;;10.32;3.35;;;;;;;;;;5076577;28;20027;-75
2024/02/09 12:39:54;;;;;;;8.38;2.53;;;;;;;;;;5074304;28;20036;-77
2024/02/09 12:42:33;;;;;;;3.53;1.57;;;;;;;;;;5075581;28;20024;-76
2024/02/09 12:45:00;;;;;;;8.30;1.98;;;;;;;;;;5074177;28;20063;-76
2024/02/09 12:47:26;;;;;;;8.80;3.33;;;;;;;;;;5074343;28;20480;-75
2024/02/09 12:49:56;;;;;;;8.20;3.22;;;;;;;;;;5074032;28;20037;-75
2024/02/09 12:52:25;;;;;;;11.10;2.78;;;;;;;;;;5074193;28;20059;-75
2024/02/09 12:54:54;;;;;;;7.78;2.38;;;;;;;;;;5073935;28;20058;-75
2024/02/09 12:57:20;;;;;;;8.70;2.20;;;;;;;;;;5074262;28;20030;-76
2024/02/09 12:59:46;;;;;;;8.57;2.60;;;;;;;;;;5073817;28;20059;-75
2024/02/09 13:02:12;;;;;;;7.95;2.63;;;;;;;;;;5073965;28;20426;-75
2024/02/09 13:04:38;;;;;;;6.07;2.05;;;;;;;;;;5074067;28;20067;-75
2024/02/09 13:07:06;;;;;;;8.40;3.13;;;;;;;;;;5073924;28;20024;-76
2024/02/09 13:09:36;;;;;;;8.77;2.58;;;;;;;;;;5074001;28;20035;-76
2024/02/09 13:12:06;;;;;;;8.10;2.05;;;;;;;;;;5056789;28;20037;-75
2024/02/09 13:14:34;;;;;;;7.30;2.72;;;;;;;;;;5073459;28;20114;-76
2024/02/09 13:17:01;;;;;;;10.35;3.42;;;;;;;;;;5073199;28;20056;-77
2024/02/09 13:19:27;;;;;;;7.03;2.70;;;;;;;;;;5072735;28;20056;-76
2024/02/09 13:21:55;;;;;;;7.25;2.58;;;;;;;;;;5073496;28;20467;-76
2024/02/09 13:24:21;;;;;;;9.65;2.65;;;;;;;;;;5073536;28;20036;-75
2024/02/09 13:26:50;;;;;;;8.40;3.08;;;;;;;;;;5073658;28;20082;-75
2024/02/09 13:29:17;;;;;;;18.75;2.97;;;;;;;;;;5073646;28;20147;-75
2024/02/09 13:31:43;;;;;;;11.18;3.22;;;;;;;;;;5074669;28;20021;-76
2024/02/09 13:34:09;;;;;;;11.07;3.00;;;;;;;;;;5074866;28;20131;-76
2024/02/09 13:36:35;;;;;;;6.43;2.30;;;;;;;;;;5074789;28;20040;-76
2024/02/09 13:39:03;;;;;;;8.65;2.53;;;;;;;;;;5074015;28;20024;-76
2024/02/09 13:41:29;;;;;;;8.07;2.90;;;;;;;;;;5074364;28;20020;-76
2024/02/09 13:43:57;;;;;;;11.35;2.92;;;;;;;;;;5072922;28;20033;-76
2024/02/09 13:46:23;;;;;;;7.88;2.30;;;;;;;;;;5069753;28;20025;-76
2024/02/09 13:48:50;;;;;;;7.80;2.88;;;;;;;;;;5072997;28;20028;-75
2024/02/09 13:51:19;;;;;;;6.07;2.50;;;;;;;;;;5074252;28;20051;-76
2024/02/09 13:53:47;;;;;;;11.73;4.53;;;;;;;;;;5072980;28;20086;-76
2024/02/09 13:56:14;;;;;;;8.52;2.65;;;;;;;;;;5072629;28;20464;-76
2024/02/09 13:58:44;;;;;;;10.82;3.28;;;;;;;;;;5072653;28;20031;-76
2024/02/09 14:01:11;;;;;;;5.10;2.30;;;;;;;;;;5072910;28;20028;-77
2024/02/09 14:03:37;;;;;;;9.25;2.80;;;;;;;;;;5072620;28;20052;-76
2024/02/09 14:06:03;;;;;;;9.90;3.67;;;;;;;;;;5072810;28;20020;-76
2024/02/09 14:08:29;;;;;;;9.75;4.15;;;;;;;;;;5070445;28;20066;-76
2024/02/09 14:10:56;;;;;;;8.00;3.15;;;;;;;;;;5056711;28;20370;-77
2024/02/09 14:13:22;;;;;;;9.40;2.83;;;;;;;;;;5072438;28;20565;-76
2024/02/09 14:15:49;;;;;;;7.43;2.50;;;;;;;;;;5072832;28;20039;-75
2024/02/09 14:18:15;;;;;;;7.68;2.90;;;;;;;;;;5072481;28;20017;-75
2024/02/09 14:20:41;;;;;;;6.57;2.47;;;;;;;;;;5073976;28;20021;-75
2024/02/09 14:23:07;;;;;;;6.80;2.47;;;;;;;;;;5072219;28;20116;-75
2024/02/09 14:25:33;;;;;;;6.57;3.03;;;;;;;;;;5072459;28;20039;-76
2024/02/09 14:27:59;;;;;;;8.15;2.85;;;;;;;;;;5073447;28;20039;-74
2024/02/09 14:30:26;;;;;;;9.13;3.08;;;;;;;;;;5072554;28;20021;-77
2024/02/09 14:32:54;;;;;;;5.97;2.10;;;;;;;;;;5072063;28;20035;-77
2024/02/09 14:35:20;;;;;;;10.85;2.80;;;;;;;;;;5072200;28;20029;-76
2024/02/09 14:37:46;;;;;;;7.43;2.83;;;;;;;;;;5073364;28;20095;-76
2024/02/09 14:40:13;;;;;;;8.65;2.90;;;;;;;;;;5072123;28;20119;-77
2024/02/09 14:42:40;;;;;;;9.65;3.42;;;;;;;;;;5072343;28;20040;-76
2024/02/09 14:45:07;;;;;;;6.28;2.50;;;;;;;;;;5071923;28;20032;-77
2024/02/09 14:47:33;;;;;;;11.05;4.40;;;;;;;;;;5071921;28;20421;-77
2024/02/09 14:49:59;;;;;;;9.82;3.47;;;;;;;;;;5071412;28;20028;-77
2024/02/09 14:52:27;;;;;;;9.45;3.22;;;;;;;;;;5071952;28;20472;-77
2024/02/09 14:54:53;;;;;;;9.80;3.05;;;;;;;;;;5071750;28;20029;-76
2024/02/09 14:57:20;;;;;;;10.63;3.83;;;;;;;;;;5071857;28;20115;-78
2024/02/09 14:59:46;;;;;;;7.05;2.08;;;;;;;;;;5071713;28;20130;-77
2024/02/09 15:02:12;;;;;;;14.55;3.35;;;;;;;;;;5071641;28;20021;-76
2024/02/09 15:04:39;;;;;;;10.82;3.25;;;;;;;;;;5054843;28;20123;-78
2024/02/09 15:07:06;;;;;;;7.28;2.20;;;;;;;;;;5071302;28;20111;-77
2024/02/09 15:09:32;;;;;;;6.93;2.20;;;;;;;;;;5071945;28;20017;-77
2024/02/09 15:12:01;;;;;;;6.90;2.55;;;;;;;;;;5072681;28;20416;-77
2024/02/09 15:14:27;;;;;;;8.98;2.38;;;;;;;;;;5071371;28;20044;-75
2024/02/09 15:16:54;;;;;;;6.15;2.55;;;;;;;;;;5071421;28;20035;-76
2024/02/09 15:19:21;;;;;;;9.55;3.22;;;;;;;;;;5071398;28;20024;-76
2024/02/09 15:21:50;;;;;;;10.85;2.97;;;;;;;;;;5072679;28;20531;-77
2024/02/09 15:24:17;;;;;;;5.75;1.83;;;;;;;;;;5073039;28;20024;-77
2024/02/09 15:26:44;;;;;;;11.52;2.83;;;;;;;;;;5071429;28;20029;-76
2024/02/09 15:29:10;;;;;;;6.18;2.00;;;;;;;;;;5071273;28;20369;-76
2024/02/09 15:31:37;;;;;;;11.77;2.45;;;;;;;;;;5071765;28;20426;-77
2024/02/09 15:34:03;;;;;;;11.70;2.92;;;;;;;;;;5072632;28;20021;-76
2024/02/09 15:36:31;;;;;;;6.45;2.10;;;;;;;;;;5073841;28;20383;-76
2024/02/09 15:38:58;;;;;;;9.13;2.55;;;;;;;;;;5071650;28;20016;-77
2024/02/09 15:41:24;;;;;;;8.95;2.38;;;;;;;;;;5076431;28;20024;-77
2024/02/09 15:43:52;;;;;;;8.00;2.58;;;;;;;;;;5071685;28;20024;-77
2024/02/09 15:46:19;;;;;;;7.80;2.55;;;;;;;;;;5071188;28;20032;-78
2024/02/09 15:48:52;;;;;;;13.13;3.10;;;;;;;;;;5071140;28;20115;-77
2024/02/09 15:51:30;;;;;;;5.40;1.83;;;;;;;;;;5070982;28;20119;-78
2024/02/09 15:53:57;;;;;;;9.60;2.67;;;;;;;;;;5070830;28;20036;-77
2024/02/09 15:56:25;;;;;;;13.00;2.58;;;;;;;;;;5071238;28;20027;-77
2024/02/09 15:58:52;;;;;;;9.18;3.03;;;;;;;;;;5072031;28;20435;-77
2024/02/09 16:01:19;;;;;;;6.13;2.38;;;;;;;;;;5070651;28;20031;-77
2024/02/09 16:03:49;;;;;;;7.38;2.80;;;;;;;;;;5070908;28;20172;-78
2024/02/09 16:06:15;;;;;;;6.78;2.10;;;;;;;;;;5071810;28;20136;-77
2024/02/09 16:08:43;;;;;;;5.85;2.33;;;;;;;;;;5070941;28;20078;-78
2024/02/09 16:11:09;;;;;;;6.93;2.72;;;;;;;;;;5070957;28;20476;-76
2024/02/09 16:13:39;;;;;;;5.82;2.20;;;;;;;;;;5071896;28;20033;-78
2024/02/09 16:16:07;;;;;;;4.72;2.17;;;;;;;;;;5070332;28;20021;-78
2024/02/09 16:18:33;;;;;;;7.60;2.58;;;;;;;;;;5070932;28;20121;-77
2024/02/09 16:21:00;;;;;;;9.40;2.50;;;;;;;;;;5070714;28;20486;-77
2024/02/09 16:23:26;;;;;;;9.80;2.92;;;;;;;;;;5070625;28;20125;-76